createdAt,value
2023-04-15T00:01:10.321Z,9.43
2023-04-15T00:03:38.525Z,6.00
2023-04-15T00:06:06.990Z,3.97
2023-04-15T00:08:34.884Z,4.20
2023-04-15T00:11:05.862Z,3.90
2023-04-15T00:13:33.978Z,2.20
2023-04-15T00:16:03.321Z,2.80
2023-04-15T00:18:31.709Z,1.87
2023-04-15T00:21:00.205Z,1.83
2023-04-15T00:23:29.092Z,2.03
2023-04-15T00:25:56.999Z,3.53
2023-04-15T00:28:24.898Z,7.33
2023-04-15T00:30:53.172Z,5.43
2023-04-15T00:33:22.527Z,4.43
2023-04-15T00:35:50.945Z,1.73
2023-04-15T00:38:18.899Z,1.70
2023-04-15T00:40:46.823Z,2.37
2023-04-15T00:43:15.009Z,1.80
2023-04-15T00:45:43.505Z,1.83
2023-04-15T00:48:11.503Z,2.40
2023-04-15T00:50:40.721Z,1.90
2023-04-15T00:53:08.567Z,2.30
2023-04-15T00:55:36.552Z,2.67
2023-04-15T00:58:04.443Z,3.60
2023-04-15T01:00:32.343Z,5.20
2023-04-15T01:03:00.446Z,4.30
2023-04-15T01:05:28.504Z,5.97
2023-04-15T01:07:57.918Z,6.60
2023-04-15T01:10:25.771Z,5.30
2023-04-15T01:12:53.667Z,5.23
2023-04-15T01:15:21.923Z,3.40
2023-04-15T01:17:49.895Z,2.47
2023-04-15T01:20:17.998Z,4.13
2023-04-15T01:22:46.573Z,3.03
2023-04-15T01:25:18.948Z,2.33
2023-04-15T01:27:48.259Z,2.90
2023-04-15T01:30:16.258Z,2.43
2023-04-15T01:32:44.410Z,2.97
2023-04-15T01:35:12.301Z,2.30
2023-04-15T01:37:40.485Z,4.17
2023-04-15T01:40:09.443Z,3.80
2023-04-15T01:42:37.716Z,2.90
2023-04-15T01:45:08.329Z,2.23
2023-04-15T01:47:36.246Z,2.60
2023-04-15T01:50:04.129Z,2.90
2023-04-15T01:52:32.215Z,2.30
2023-04-15T01:55:00.172Z,2.37
2023-04-15T01:57:28.071Z,2.10
2023-04-15T01:59:56.163Z,2.00
2023-04-15T02:02:25.897Z,1.97
2023-04-15T02:04:53.821Z,1.90
2023-04-15T02:07:21.919Z,2.03
2023-04-15T02:09:49.814Z,1.77
2023-04-15T02:12:17.677Z,1.87
2023-04-15T02:14:45.525Z,2.10
2023-04-15T02:17:13.415Z,1.80
2023-04-15T02:19:43.050Z,1.80
2023-04-15T02:22:14.615Z,1.83
2023-04-15T02:24:42.479Z,1.87
2023-04-15T02:27:10.422Z,2.30
2023-04-15T02:29:38.405Z,2.03
2023-04-15T02:32:07.503Z,2.10
2023-04-15T02:34:35.461Z,2.17
2023-04-15T02:37:05.537Z,2.10
2023-04-15T02:39:33.423Z,2.20
2023-04-15T02:42:01.315Z,2.63
2023-04-15T02:44:29.236Z,2.20
2023-04-15T02:46:58.356Z,2.17
2023-04-15T02:49:26.424Z,2.50
2023-04-15T02:51:54.301Z,2.67
2023-04-15T02:54:23.923Z,2.30
2023-04-15T02:56:52.259Z,1.93
2023-04-15T02:59:20.149Z,2.10
2023-04-15T03:01:48.215Z,2.00
2023-04-15T03:04:16.371Z,1.97
2023-04-15T03:06:44.390Z,2.10
2023-04-15T03:09:12.497Z,1.83
2023-04-15T03:11:42.218Z,1.70
2023-04-15T03:14:10.161Z,1.80
2023-04-15T03:16:38.033Z,1.90
2023-04-15T03:19:05.896Z,1.80
2023-04-15T03:21:33.773Z,1.60
2023-04-15T03:24:01.646Z,1.70
2023-04-15T03:26:29.620Z,1.50
2023-04-15T03:28:59.636Z,1.60
2023-04-15T03:31:27.765Z,1.80
2023-04-15T03:33:55.740Z,1.70
2023-04-15T03:36:23.645Z,1.47
2023-04-15T03:38:51.509Z,1.63
2023-04-15T03:41:19.423Z,1.73
2023-04-15T03:43:47.344Z,1.57
2023-04-15T03:46:16.625Z,1.53
2023-04-15T03:48:44.512Z,1.87
2023-04-15T03:51:12.404Z,1.87
2023-04-15T03:53:40.450Z,1.83
2023-04-15T03:56:08.981Z,1.90
2023-04-15T03:58:36.935Z,1.60
2023-04-15T04:01:04.824Z,1.67
2023-04-15T04:03:34.572Z,1.77
2023-04-15T04:06:02.781Z,1.57
2023-04-15T04:08:30.658Z,1.87
2023-04-15T04:10:58.525Z,1.83
2023-04-15T04:13:26.423Z,1.90
2023-04-15T04:15:54.376Z,1.77
2023-04-15T04:18:22.497Z,1.63
2023-04-15T04:20:51.709Z,1.83
2023-04-15T04:23:19.578Z,1.40
2023-04-15T04:25:47.673Z,1.83
2023-04-15T04:28:15.538Z,1.60
2023-04-15T04:30:43.437Z,1.60
2023-04-15T04:33:11.772Z,1.93
2023-04-15T04:35:39.672Z,1.70
2023-04-15T04:38:08.926Z,1.77
2023-04-15T04:40:36.871Z,1.77
2023-04-15T04:43:04.755Z,2.00
2023-04-15T04:45:32.634Z,1.83
2023-04-15T04:48:00.713Z,1.93
2023-04-15T04:50:28.687Z,1.87
2023-04-15T04:52:56.625Z,1.80
2023-04-15T04:55:25.896Z,2.00
2023-04-15T04:57:53.889Z,1.83
2023-04-15T05:00:21.777Z,2.13
2023-04-15T05:02:49.776Z,1.87
2023-04-15T05:05:17.857Z,1.90
2023-04-15T05:07:45.741Z,1.77
2023-04-15T05:10:14.784Z,1.93
2023-04-15T05:12:44.195Z,1.80
2023-04-15T05:15:12.560Z,1.50
2023-04-15T05:17:40.509Z,1.70
2023-04-15T05:20:09.742Z,1.73
2023-04-15T05:22:37.944Z,1.63
2023-04-15T05:25:06.585Z,1.50
2023-04-15T05:27:34.487Z,1.67
2023-04-15T05:30:03.922Z,1.40
2023-04-15T05:32:31.918Z,1.80
2023-04-15T05:34:59.881Z,1.80
2023-04-15T05:37:27.732Z,2.00
2023-04-15T05:39:55.624Z,2.47
2023-04-15T05:42:23.545Z,2.60
2023-04-15T05:44:51.848Z,2.03
2023-04-15T05:47:21.301Z,2.10
2023-04-15T05:49:49.286Z,2.07
2023-04-15T05:52:17.504Z,1.93
2023-04-15T05:54:45.403Z,2.27
2023-04-15T05:57:13.288Z,2.03
2023-04-15T05:59:42.200Z,2.40
2023-04-15T06:02:11.039Z,2.20
2023-04-15T06:04:40.543Z,2.77
2023-04-15T06:07:08.521Z,2.30
2023-04-15T06:09:36.399Z,2.17
2023-04-15T06:12:14.889Z,2.20
2023-04-15T06:14:42.953Z,2.40
2023-04-15T06:17:10.896Z,2.10
2023-04-15T06:19:40.469Z,1.93
2023-04-15T06:22:08.634Z,2.10
2023-04-15T06:24:37.177Z,2.03
2023-04-15T06:27:05.201Z,2.23
2023-04-15T06:29:33.062Z,2.27
2023-04-15T06:32:01.074Z,1.83
2023-04-15T06:34:28.969Z,2.30
2023-04-15T06:36:58.208Z,2.10
2023-04-15T06:39:26.173Z,2.20
2023-04-15T06:41:54.165Z,1.90
2023-04-15T06:44:22.033Z,2.63
2023-04-15T06:46:50.068Z,2.10
2023-04-15T06:49:18.085Z,2.00
2023-04-15T06:51:46.293Z,1.70
2023-04-15T06:54:15.572Z,1.90
2023-04-15T06:56:43.775Z,2.00
2023-04-15T06:59:11.675Z,2.10
2023-04-15T07:01:39.570Z,2.10
2023-04-15T07:04:07.715Z,2.67
2023-04-15T07:06:35.669Z,2.20
2023-04-15T07:09:05.172Z,2.07
2023-04-15T07:11:34.839Z,1.67
2023-04-15T07:14:02.718Z,2.07
2023-04-15T07:16:31.113Z,1.80
2023-04-15T07:18:59.101Z,1.67
2023-04-15T07:21:27.720Z,2.40
2023-04-15T07:23:55.638Z,1.77
2023-04-15T07:26:23.608Z,2.17
2023-04-15T07:28:52.956Z,2.17
2023-04-15T07:31:21.182Z,1.87
2023-04-15T07:33:49.092Z,2.03
2023-04-15T07:36:16.920Z,1.77
2023-04-15T07:38:45.343Z,1.70
2023-04-15T07:41:13.261Z,1.90
2023-04-15T07:43:41.140Z,1.73
2023-04-15T07:46:10.465Z,1.83
2023-04-15T07:48:38.476Z,1.60
2023-04-15T07:51:06.984Z,1.83
2023-04-15T07:53:34.860Z,1.80
2023-04-15T07:56:02.802Z,1.80
2023-04-15T07:58:30.674Z,1.50
2023-04-15T08:00:58.724Z,2.00
2023-04-15T08:03:29.336Z,2.10
2023-04-15T08:05:57.702Z,1.90
2023-04-15T08:08:26.483Z,2.00
2023-04-15T08:10:54.616Z,2.13
2023-04-15T08:13:22.506Z,1.90
2023-04-15T08:16:14.741Z,2.10
2023-04-15T08:18:44.110Z,1.80
2023-04-15T08:21:12.363Z,2.57
2023-04-15T08:23:40.329Z,2.00
2023-04-15T08:26:08.839Z,1.70
2023-04-15T08:28:46.448Z,2.40
2023-04-15T08:31:14.871Z,1.90
2023-04-15T08:33:44.417Z,1.70
2023-04-15T08:36:14.220Z,1.70
2023-04-15T08:38:42.167Z,1.77
2023-04-15T08:41:14.162Z,2.27
2023-04-15T08:43:44.869Z,1.70
2023-04-15T08:46:12.755Z,2.10
2023-04-15T08:48:41.538Z,2.17
2023-04-15T08:51:11.066Z,1.57
2023-04-15T08:53:39.039Z,1.90
2023-04-15T08:56:07.301Z,1.93
2023-04-15T08:58:35.395Z,2.20
2023-04-15T09:01:03.503Z,2.30
2023-04-15T09:03:31.745Z,2.03
2023-04-15T09:05:59.800Z,2.23
2023-04-15T09:08:29.080Z,2.20
2023-04-15T09:10:56.973Z,1.77
2023-04-15T09:13:24.967Z,1.80
2023-04-15T09:15:52.886Z,1.90
2023-04-15T09:18:28.823Z,2.47
2023-04-15T09:20:56.730Z,2.17
2023-04-15T09:23:24.660Z,2.00
2023-04-15T09:25:53.999Z,2.17
2023-04-15T09:28:27.939Z,1.47
2023-04-15T09:30:59.046Z,1.57
2023-04-15T09:33:27.435Z,2.07
2023-04-15T09:36:00.075Z,1.70
2023-04-15T09:38:28.974Z,1.60
2023-04-15T09:40:59.005Z,3.70
2023-04-15T09:43:38.707Z,1.90
2023-04-15T09:46:07.041Z,2.50
2023-04-15T09:48:35.105Z,2.03
2023-04-15T09:51:03.076Z,2.00
2023-04-15T09:53:31.914Z,1.93
2023-04-15T09:56:02.361Z,1.60
2023-04-15T09:58:31.644Z,2.03
2023-04-15T10:01:00.154Z,2.17
2023-04-15T10:03:29.174Z,1.50
2023-04-15T10:05:58.033Z,1.90
2023-04-15T10:08:26.665Z,1.50
2023-04-15T10:10:58.067Z,1.63
2023-04-15T10:13:30.382Z,1.70
2023-04-15T10:15:59.468Z,1.90
2023-04-15T10:18:27.970Z,2.03
2023-04-15T10:20:56.196Z,2.10
2023-04-15T10:23:24.552Z,2.00
2023-04-15T10:25:53.052Z,2.03
2023-04-15T10:28:21.039Z,2.20
2023-04-15T10:30:50.807Z,2.00
2023-04-15T10:33:20.072Z,1.87
2023-04-15T10:35:48.946Z,1.77
2023-04-15T10:38:39.132Z,2.60
2023-04-15T10:41:21.578Z,2.03
2023-04-15T10:43:53.679Z,2.10
2023-04-15T10:46:25.729Z,1.97
2023-04-15T10:48:55.296Z,1.70
2023-04-15T10:51:31.249Z,1.80
2023-04-15T10:53:59.955Z,2.20
2023-04-15T10:56:30.121Z,1.60
2023-04-15T10:59:01.542Z,2.00
2023-04-15T11:01:56.744Z,1.80
2023-04-15T11:04:53.635Z,1.50
2023-04-15T11:07:50.140Z,2.13
2023-04-15T11:10:51.922Z,1.60
2023-04-15T11:13:21.886Z,1.53
2023-04-15T11:15:50.079Z,1.70
2023-04-15T11:18:19.802Z,1.73
2023-04-15T11:20:48.814Z,1.50
2023-04-15T11:23:17.014Z,1.53
2023-04-15T11:25:45.021Z,1.60
2023-04-15T11:28:13.425Z,1.20
2023-04-15T11:30:41.422Z,1.70
2023-04-15T11:33:10.525Z,1.37
2023-04-15T11:35:41.761Z,1.50
2023-04-15T11:38:10.740Z,1.07
2023-04-15T11:40:38.789Z,1.40
2023-04-15T11:43:07.773Z,1.60
2023-04-15T11:45:35.824Z,1.10
2023-04-15T11:48:08.003Z,1.23
2023-04-15T11:50:36.130Z,1.30
2023-04-15T11:53:08.353Z,1.42
2023-04-15T11:55:43.405Z,1.23
2023-04-15T11:58:13.523Z,1.33
2023-04-15T12:00:43.927Z,0.90
2023-04-15T12:03:29.933Z,1.30
2023-04-15T12:06:14.962Z,1.13
2023-04-15T12:09:03.129Z,1.30
2023-04-15T12:11:32.965Z,1.15
2023-04-15T12:14:04.429Z,1.27
2023-04-15T12:16:32.948Z,1.20
2023-04-15T12:19:01.814Z,1.20
2023-04-15T12:21:35.684Z,1.40
2023-04-15T12:24:06.411Z,1.08
2023-04-15T12:26:36.940Z,1.15
2023-04-15T12:29:05.223Z,1.23
2023-04-15T12:31:33.162Z,1.10
2023-04-15T12:34:01.814Z,1.35
2023-04-15T12:36:36.084Z,1.27
2023-04-15T12:39:06.301Z,1.27
2023-04-15T12:41:34.228Z,1.13
2023-04-15T12:44:02.263Z,1.30
2023-04-15T12:46:30.352Z,1.20
2023-04-15T12:48:58.251Z,1.20
2023-04-15T12:51:26.453Z,1.10
2023-04-15T12:53:54.327Z,1.13
2023-04-15T12:56:23.945Z,1.50
2023-04-15T12:58:51.910Z,1.25
2023-04-15T13:01:20.004Z,1.25
2023-04-15T13:03:48.517Z,1.95
2023-04-15T13:06:18.810Z,1.48
2023-04-15T13:08:57.159Z,1.30
2023-04-15T13:11:29.297Z,1.30
2023-04-15T13:13:57.229Z,1.20
2023-04-15T13:16:25.708Z,1.10
2023-04-15T13:18:53.770Z,0.90
2023-04-15T13:21:21.859Z,1.50
2023-04-15T13:23:50.082Z,1.30
2023-04-15T13:26:18.409Z,1.17
2023-04-15T13:28:47.690Z,1.15
2023-04-15T13:31:15.826Z,1.33
2023-04-15T13:33:43.767Z,1.55
2023-04-15T13:36:11.680Z,1.20
2023-04-15T13:38:39.651Z,1.30
2023-04-15T13:41:07.766Z,1.10
2023-04-15T13:43:35.739Z,1.10
2023-04-15T13:46:05.345Z,1.25
2023-04-15T13:48:33.290Z,1.60
2023-04-15T13:51:01.186Z,1.10
2023-04-15T13:53:38.049Z,1.20
2023-04-15T13:56:07.880Z,1.33
2023-04-15T13:58:35.810Z,1.30
2023-04-15T14:01:06.077Z,1.10
2023-04-15T14:03:36.168Z,1.30
2023-04-15T14:06:04.656Z,1.27
2023-04-15T14:08:32.584Z,1.20
2023-04-15T14:11:00.655Z,1.08
2023-04-15T14:13:28.560Z,1.17
2023-04-15T14:15:56.464Z,1.00
2023-04-15T14:18:25.710Z,1.20
2023-04-15T14:20:53.607Z,1.10
2023-04-15T14:23:21.646Z,1.25
2023-04-15T14:25:49.533Z,1.00
2023-04-15T14:28:17.398Z,0.82
2023-04-15T14:30:45.412Z,1.17
2023-04-15T14:33:13.426Z,0.93
2023-04-15T14:35:43.119Z,1.10
2023-04-15T14:38:11.982Z,1.20
2023-04-15T14:40:39.968Z,1.20
2023-04-15T14:43:07.861Z,1.48
2023-04-15T14:45:36.405Z,1.10
2023-04-15T14:48:06.481Z,1.02
2023-04-15T14:50:34.488Z,1.08
2023-04-15T14:53:04.143Z,0.90
2023-04-15T14:55:32.018Z,1.20
2023-04-15T14:58:02.122Z,1.17
2023-04-15T15:00:30.516Z,1.30
2023-04-15T15:02:58.457Z,1.15
2023-04-15T15:05:26.654Z,1.40
2023-04-15T15:07:54.622Z,1.52
2023-04-15T15:10:34.957Z,1.40
2023-04-15T15:13:11.849Z,1.17
2023-04-15T15:15:40.210Z,1.27
2023-04-15T15:18:08.197Z,1.30
2023-04-15T15:20:36.248Z,1.20
2023-04-15T15:23:04.191Z,1.00
2023-04-15T15:25:33.454Z,1.17
2023-04-15T15:28:01.366Z,1.40
2023-04-15T15:30:29.265Z,1.77
2023-04-15T15:32:57.320Z,1.88
2023-04-15T15:35:25.944Z,1.65
2023-04-15T15:37:55.143Z,2.05
2023-04-15T15:40:23.134Z,1.67
2023-04-15T15:42:52.564Z,1.52
2023-04-15T15:45:20.409Z,1.17
2023-04-15T15:47:48.522Z,1.10
2023-04-15T15:50:16.909Z,1.60
2023-04-15T15:52:44.783Z,3.80
2023-04-15T15:55:12.686Z,1.83
2023-04-15T15:57:40.551Z,1.70
2023-04-15T16:00:12.709Z,1.43
2023-04-15T16:05:12.328Z,2.10
2023-04-15T16:07:40.380Z,2.10
2023-04-15T16:10:09.310Z,1.90
2023-04-15T16:12:37.199Z,1.70
2023-04-15T16:15:05.667Z,1.60
2023-04-15T16:17:35.057Z,2.23
2023-04-15T16:20:05.711Z,1.80
2023-04-15T16:22:33.807Z,1.80
2023-04-15T16:25:01.727Z,2.50
2023-04-15T16:27:29.664Z,3.90
2023-04-15T16:29:57.496Z,1.70
2023-04-15T16:32:25.456Z,1.60
2023-04-15T16:34:55.056Z,1.70
2023-04-15T16:37:22.928Z,1.90
2023-04-15T16:39:50.990Z,1.87
2023-04-15T16:42:18.886Z,2.47
2023-04-15T16:44:46.733Z,1.93
2023-04-15T16:47:14.937Z,2.20
2023-04-15T16:49:42.791Z,1.60
2023-04-15T16:52:12.134Z,2.00
2023-04-15T16:54:41.497Z,1.77
2023-04-15T16:57:09.468Z,2.37
2023-04-15T16:59:37.372Z,1.40
2023-04-15T17:02:05.469Z,1.53
2023-04-15T17:04:34.426Z,1.83
2023-04-15T17:07:02.425Z,1.97
2023-04-15T17:09:31.816Z,2.20
2023-04-15T17:11:59.738Z,2.20
2023-04-15T17:14:28.598Z,1.90
2023-04-15T17:16:56.893Z,1.97
2023-04-15T17:19:24.808Z,1.63
2023-04-15T17:21:54.776Z,1.70
2023-04-15T17:24:22.994Z,1.50
2023-04-15T17:26:52.231Z,1.70
2023-04-15T17:29:20.120Z,2.30
2023-04-15T17:31:48.093Z,1.13
2023-04-15T17:34:16.229Z,1.63
2023-04-15T17:36:44.450Z,1.93
2023-04-15T17:39:14.143Z,1.50
2023-04-15T17:41:42.083Z,1.47
2023-04-15T17:44:11.376Z,1.63
2023-04-15T17:46:39.366Z,1.83
2023-04-15T17:49:07.530Z,1.83
2023-04-15T17:51:35.529Z,2.20
2023-04-15T17:54:03.744Z,2.43
2023-04-15T17:56:32.059Z,2.40
2023-04-15T17:59:00.528Z,2.47
2023-04-15T18:01:29.901Z,2.00
2023-04-15T18:03:58.112Z,2.00
2023-04-15T18:06:27.228Z,1.70
2023-04-15T18:08:55.158Z,2.00
2023-04-15T18:11:23.033Z,2.33
2023-04-15T18:13:50.983Z,3.17
2023-04-15T18:16:18.882Z,2.70
2023-04-15T18:18:48.190Z,2.67
2023-04-15T18:21:16.146Z,3.50
2023-04-15T18:23:44.007Z,2.53
2023-04-15T18:26:11.897Z,3.00
2023-04-15T18:28:40.127Z,3.70
2023-04-15T18:31:08.065Z,3.63
2023-04-15T18:33:36.528Z,2.67
2023-04-15T18:36:05.946Z,2.90
2023-04-15T18:38:33.897Z,2.60
2023-04-15T18:41:01.818Z,3.07
2023-04-15T18:43:29.714Z,2.50
2023-04-15T18:45:57.633Z,2.73
2023-04-15T18:48:26.956Z,2.30
2023-04-15T18:50:54.916Z,3.03
2023-04-15T18:53:24.191Z,2.60
2023-04-15T18:55:52.764Z,2.33
2023-04-15T18:58:20.630Z,3.03
2023-04-15T19:00:48.516Z,2.87
2023-04-15T19:03:16.483Z,2.70
2023-04-15T19:05:44.489Z,3.00
2023-04-15T19:08:12.393Z,3.20
2023-04-15T19:10:41.754Z,2.97
2023-04-15T19:13:09.622Z,2.93
2023-04-15T19:15:37.503Z,2.80
2023-04-15T19:18:10.412Z,2.60
2023-04-15T19:20:40.039Z,3.10
2023-04-15T19:23:08.170Z,2.37
2023-04-15T19:25:36.074Z,2.70
2023-04-15T19:28:06.740Z,5.80
2023-04-15T19:30:34.643Z,3.17
2023-04-15T19:33:02.843Z,3.70
2023-04-15T19:35:30.832Z,3.50
2023-04-15T19:37:58.770Z,6.00
2023-04-15T19:40:26.740Z,4.27
2023-04-15T19:42:54.688Z,4.13
2023-04-15T19:45:23.961Z,3.63
2023-04-15T19:47:52.761Z,3.13
2023-04-15T19:50:24.661Z,2.90
2023-04-15T19:52:52.589Z,3.53
2023-04-15T19:55:20.513Z,3.23
2023-04-15T19:57:48.479Z,4.70
2023-04-15T20:00:16.840Z,3.70
2023-04-15T20:02:46.177Z,3.40
2023-04-15T20:05:14.150Z,4.17
2023-04-15T20:07:43.149Z,4.20
2023-04-15T20:10:13.235Z,3.07
2023-04-15T20:12:50.486Z,2.73
2023-04-15T20:15:20.896Z,2.97
2023-04-15T20:17:50.199Z,2.77
2023-04-15T20:20:18.124Z,2.53
2023-04-15T20:22:46.017Z,2.37
2023-04-15T20:25:13.918Z,2.57
2023-04-15T20:27:41.902Z,3.07
2023-04-15T20:30:11.044Z,2.83
2023-04-15T20:32:39.000Z,2.83
2023-04-15T20:35:08.983Z,3.20
2023-04-15T20:37:38.398Z,3.60
2023-04-15T20:40:07.897Z,2.90
2023-04-15T20:42:35.770Z,3.20
2023-04-15T20:45:03.924Z,3.37
2023-04-15T20:47:31.844Z,3.90
2023-04-15T20:49:59.769Z,2.53
2023-04-15T20:52:29.055Z,2.90
2023-04-15T20:54:56.937Z,3.30
2023-04-15T20:57:25.926Z,2.63
2023-04-15T20:59:53.842Z,2.47
2023-04-15T21:02:21.937Z,1.73
2023-04-15T21:04:49.875Z,1.70
2023-04-15T21:07:17.760Z,2.07
2023-04-15T21:09:47.349Z,1.90
2023-04-15T21:12:15.256Z,2.50
2023-04-15T21:14:43.165Z,2.77
2023-04-15T21:17:11.517Z,2.20
2023-04-15T21:19:40.355Z,2.63
2023-04-15T21:22:08.264Z,2.57
2023-04-15T21:24:36.467Z,3.23
2023-04-15T21:27:05.905Z,2.33
2023-04-15T21:29:33.752Z,2.50
2023-04-15T21:32:01.860Z,2.83
2023-04-15T21:34:29.957Z,3.23
2023-04-15T21:36:57.803Z,2.83
2023-04-15T21:39:26.006Z,3.03
2023-04-15T21:41:53.968Z,2.97
2023-04-15T21:44:23.286Z,3.10
2023-04-15T21:46:51.583Z,2.83
2023-04-15T21:49:20.333Z,3.60
2023-04-15T21:51:48.613Z,4.03
2023-04-15T21:54:16.672Z,3.33
2023-04-15T21:56:44.549Z,4.00
2023-04-15T21:59:12.459Z,3.80
2023-04-15T22:01:41.809Z,3.57
2023-04-15T22:04:11.178Z,3.03
2023-04-15T22:06:39.428Z,3.10
2023-04-15T22:09:07.333Z,3.13
2023-04-15T22:11:35.337Z,3.83
2023-04-15T22:14:03.289Z,3.53
2023-04-15T22:16:31.230Z,3.73
2023-04-15T22:19:00.494Z,3.50
2023-04-15T22:21:28.550Z,3.83
2023-04-15T22:24:38.128Z,3.37
2023-04-15T22:26:44.270Z,3.80
2023-04-15T22:29:12.130Z,3.23
2023-04-15T22:31:40.140Z,3.80
2023-04-15T22:34:09.602Z,3.77
2023-04-15T22:36:37.631Z,3.80
2023-04-15T22:39:05.850Z,3.60
2023-04-15T22:41:34.136Z,3.63
2023-04-15T22:44:02.063Z,3.57
2023-04-15T22:46:30.257Z,3.70
2023-04-15T22:48:58.224Z,3.90
2023-04-15T22:51:28.123Z,3.57
2023-04-15T22:53:56.182Z,3.30
2023-04-15T22:56:24.063Z,3.17
2023-04-15T22:58:51.960Z,3.03
2023-04-15T23:01:20.920Z,3.27
2023-04-15T23:03:57.123Z,3.90
2023-04-15T23:06:34.818Z,3.37
2023-04-15T23:09:02.711Z,3.43
2023-04-15T23:11:30.625Z,3.47
2023-04-15T23:13:58.527Z,3.40
2023-04-15T23:16:26.560Z,3.00
2023-04-15T23:18:54.761Z,3.27
2023-04-15T23:21:25.490Z,3.40
2023-04-15T23:23:55.388Z,3.40
2023-04-15T23:26:23.251Z,3.80
2023-04-15T23:28:51.872Z,3.70
2023-04-15T23:31:19.748Z,3.53
2023-04-15T23:33:47.676Z,3.30
2023-04-15T23:36:15.566Z,3.53
2023-04-15T23:38:43.474Z,2.87
2023-04-15T23:41:12.761Z,3.20
2023-04-15T23:43:40.630Z,3.20
2023-04-15T23:46:08.624Z,3.07
2023-04-15T23:48:36.512Z,2.90
2023-04-15T23:51:04.608Z,3.13
2023-04-15T23:53:32.456Z,3.20
2023-04-15T23:56:00.424Z,2.67
2023-04-15T23:58:29.704Z,2.83
